Time;durP1;ratioP1;P1;durP2;ratioP2;P2;SDS_P1;SDS_P2;PMS_P1;PMS_P2;Temp;Humidity;BMP_temperature;BMP_pressure;BME280_temperature;BME280_humidity;BME280_pressure;Samples;Min_cycle;Max_cycle;Signal;HPM_P1;HPM_P2
2023/03/31 00:01:11;;;;;;;6.20;1.60;;;;;;;;;;110231;1277;22858;-77
2023/03/31 00:03:42;;;;;;;6.10;1.60;;;;;;;;;;110327;1277;22107;-76
2023/03/31 00:06:10;;;;;;;6.30;1.80;;;;;;;;;;110406;1277;22756;-77
2023/03/31 00:08:39;;;;;;;8.70;1.60;;;;;;;;;;110774;1256;22167;-77
2023/03/31 00:11:06;;;;;;;7.30;1.40;;;;;;;;;;110406;1277;23001;-77
2023/03/31 00:13:32;;;;;;;7.60;1.70;;;;;;;;;;110422;1277;22129;-77
2023/03/31 00:16:01;;;;;;;9.90;2.00;;;;;;;;;;110389;1277;22098;-77
2023/03/31 00:18:28;;;;;;;9.60;1.70;;;;;;;;;;110654;1259;22165;-77
2023/03/31 00:21:05;;;;;;;6.10;1.60;;;;;;;;;;110383;1278;22798;-77
2023/03/31 00:23:32;;;;;;;6.60;1.60;;;;;;;;;;110304;1278;22733;-77
2023/03/31 00:25:59;;;;;;;8.30;1.90;;;;;;;;;;110310;1278;22812;-78
2023/03/31 00:28:26;;;;;;;6.40;1.50;;;;;;;;;;110310;1256;21829;-76
2023/03/31 00:30:58;;;;;;;6.20;1.40;;;;;;;;;;110397;1278;22126;-76
2023/03/31 00:33:25;;;;;;;6.60;1.80;;;;;;;;;;110329;1278;22090;-77
2023/03/31 00:35:54;;;;;;;5.40;1.20;;;;;;;;;;110330;1278;22083;-76
2023/03/31 00:38:21;;;;;;;7.20;1.30;;;;;;;;;;110520;1254;22847;-77
2023/03/31 00:40:47;;;;;;;5.50;1.70;;;;;;;;;;110176;1277;22507;-77
2023/03/31 00:43:24;;;;;;;7.30;2.10;;;;;;;;;;110430;1277;22695;-77
2023/03/31 00:45:51;;;;;;;8.00;2.30;;;;;;;;;;110193;1277;22091;-76
2023/03/31 00:48:19;;;;;;;7.30;2.00;;;;;;;;;;110307;1262;22001;-77
2023/03/31 00:50:48;;;;;;;6.00;1.50;;;;;;;;;;110437;1277;22224;-77
2023/03/31 00:53:19;;;;;;;7.10;2.00;;;;;;;;;;110192;1278;22116;-77
2023/03/31 00:55:51;;;;;;;7.60;2.50;;;;;;;;;;110327;1278;22961;-77
2023/03/31 00:58:19;;;;;;;6.40;2.30;;;;;;;;;;110315;1256;22181;-76
2023/03/31 01:00:47;;;;;;;7.40;2.50;;;;;;;;;;110336;1278;22179;-76
2023/03/31 01:03:14;;;;;;;9.60;2.80;;;;;;;;;;110327;1278;22081;-76
2023/03/31 01:05:47;;;;;;;9.40;2.50;;;;;;;;;;110334;1277;22093;-76
2023/03/31 01:08:14;;;;;;;8.70;3.40;;;;;;;;;;110179;1254;22146;-77
2023/03/31 01:10:43;;;;;;;9.60;2.80;;;;;;;;;;110133;1278;22140;-76
2023/03/31 01:13:13;;;;;;;9.60;3.60;;;;;;;;;;110185;1277;22108;-77
2023/03/31 01:15:41;;;;;;;8.80;3.50;;;;;;;;;;110329;1278;22105;-77
2023/03/31 01:18:09;;;;;;;9.90;4.00;;;;;;;;;;110333;1277;22187;-78
2023/03/31 01:20:51;;;;;;;11.80;4.00;;;;;;;;;;110273;1256;22437;-76
2023/03/31 01:23:30;;;;;;;8.40;3.60;;;;;;;;;;110401;1278;22081;-78
2023/03/31 01:26:16;;;;;;;11.20;4.30;;;;;;;;;;110397;1278;22112;-76
2023/03/31 01:28:51;;;;;;;10.30;4.30;;;;;;;;;;110413;1255;22154;-76
2023/03/31 01:31:37;;;;;;;9.40;3.70;;;;;;;;;;110284;1278;22142;-76
2023/03/31 01:34:15;;;;;;;7.00;3.40;;;;;;;;;;110162;1278;22167;-76
2023/03/31 01:36:43;;;;;;;13.10;4.70;;;;;;;;;;110195;1278;22081;-76
2023/03/31 01:39:18;;;;;;;11.40;4.10;;;;;;;;;;110420;1259;22098;-77
2023/03/31 01:41:54;;;;;;;11.50;4.50;;;;;;;;;;110389;1275;22005;-77
2023/03/31 01:44:30;;;;;;;11.00;4.20;;;;;;;;;;110271;1278;22090;-77
2023/03/31 01:47:06;;;;;;;10.00;3.90;;;;;;;;;;110271;1278;22124;-76
2023/03/31 01:49:42;;;;;;;11.20;4.00;;;;;;;;;;110299;1256;22940;-77
2023/03/31 01:52:22;;;;;;;10.30;3.30;;;;;;;;;;110163;1278;22116;-80
2023/03/31 01:54:51;;;;;;;10.00;3.10;;;;;;;;;;110283;1278;22887;-79
2023/03/31 01:57:36;;;;;;;9.70;3.50;;;;;;;;;;110179;1278;22090;-79
2023/03/31 02:00:08;;;;;;;9.80;3.30;;;;;;;;;;110438;1260;22136;-79
2023/03/31 02:02:50;;;;;;;8.00;3.30;;;;;;;;;;110257;1278;22111;-79
2023/03/31 02:05:24;;;;;;;8.80;3.30;;;;;;;;;;110264;1278;22806;-80
2023/03/31 02:08:03;;;;;;;7.90;3.10;;;;;;;;;;110224;1278;22184;-77
2023/03/31 02:10:31;;;;;;;9.50;3.10;;;;;;;;;;110320;1259;22166;-77
2023/03/31 02:13:00;;;;;;;8.60;2.80;;;;;;;;;;110399;1278;22842;-77
2023/03/31 02:15:30;;;;;;;7.10;2.50;;;;;;;;;;110387;1278;22883;-76
2023/03/31 02:18:02;;;;;;;8.10;2.70;;;;;;;;;;110390;1278;22177;-76
2023/03/31 02:20:32;;;;;;;9.40;2.60;;;;;;;;;;110250;1256;22350;-76
2023/03/31 02:23:02;;;;;;;10.60;3.00;;;;;;;;;;110153;1278;22202;-77
2023/03/31 02:25:35;;;;;;;10.30;3.50;;;;;;;;;;110173;1279;22126;-76
2023/03/31 02:28:10;;;;;;;13.30;3.90;;;;;;;;;;110320;1279;22137;-77
2023/03/31 02:30:48;;;;;;;11.00;3.50;;;;;;;;;;110248;1259;23003;-77
2023/03/31 02:33:19;;;;;;;9.70;3.30;;;;;;;;;;110178;1279;22141;-77
2023/03/31 02:35:48;;;;;;;9.10;3.00;;;;;;;;;;110327;1279;22130;-76
2023/03/31 02:38:17;;;;;;;9.30;2.90;;;;;;;;;;110200;1279;22101;-77
2023/03/31 02:40:46;;;;;;;9.10;3.10;;;;;;;;;;110375;1259;22306;-78
2023/03/31 02:43:15;;;;;;;10.20;3.20;;;;;;;;;;110193;1279;22121;-77
2023/03/31 02:45:45;;;;;;;8.90;2.80;;;;;;;;;;110135;1279;22113;-76
2023/03/31 02:48:19;;;;;;;8.60;2.90;;;;;;;;;;110190;1274;22902;-76
2023/03/31 02:51:09;;;;;;;11.30;3.10;;;;;;;;;;110202;1262;22109;-77
2023/03/31 02:54:09;;;;;;;9.20;3.20;;;;;;;;;;110303;1279;22100;-76
2023/03/31 02:57:15;;;;;;;10.30;3.50;;;;;;;;;;110322;1279;22130;-77
2023/03/31 03:00:13;;;;;;;9.20;3.40;;;;;;;;;;110209;1279;22317;-77
2023/03/31 03:03:13;;;;;;;7.80;3.60;;;;;;;;;;110195;1257;22864;-77
2023/03/31 03:05:48;;;;;;;10.20;3.40;;;;;;;;;;110335;1279;22131;-78
2023/03/31 03:08:47;;;;;;;7.80;3.10;;;;;;;;;;110253;1269;22214;-78
2023/03/31 03:11:22;;;;;;;8.30;3.40;;;;;;;;;;110319;1256;22920;-78
2023/03/31 03:14:18;;;;;;;9.50;3.60;;;;;;;;;;110209;1279;22136;-77
2023/03/31 03:16:56;;;;;;;9.00;3.60;;;;;;;;;;109957;1284;22140;-78
2023/03/31 03:19:25;;;;;;;9.90;4.20;;;;;;;;;;109886;1284;22733;-78
2023/03/31 03:27:09;;;;;;;9.20;4.20;;;;;;;;;;103971;1292;546243;-80
2023/03/31 03:29:55;;;;;;;10.20;4.40;;;;;;;;;;106442;1285;22538;-82
2023/03/31 03:32:45;;;;;;;9.50;3.70;;;;;;;;;;106969;1276;22527;-79
2023/03/31 03:35:36;;;;;;;8.00;3.10;;;;;;;;;;106940;1278;25365;-80
2023/03/31 03:38:05;;;;;;;9.10;3.60;;;;;;;;;;106864;1278;24207;-83
2023/03/31 03:40:40;;;;;;;10.30;4.00;;;;;;;;;;103190;1276;5079280;-84
2023/03/31 03:43:28;;;;;;;;;;;;;;;;;;;;;
2023/03/31 03:46:01;;;;;;;12.50;4.40;;;;;;;;;;106982;1276;22535;-83
2023/03/31 03:48:28;;;;;;;12.10;4.50;;;;;;;;;;107060;1258;22524;-83
2023/03/31 03:50:58;;;;;;;12.50;4.70;;;;;;;;;;106986;1275;22527;-79
2023/03/31 03:53:25;;;;;;;16.00;5.40;;;;;;;;;;107072;1275;22517;-80
2023/03/31 03:56:00;;;;;;;14.20;5.60;;;;;;;;;;107112;1274;24368;-81
2023/03/31 03:58:29;;;;;;;12.90;5.30;;;;;;;;;;107048;1257;25316;-79
2023/03/31 04:01:17;;;;;;;13.30;4.90;;;;;;;;;;106972;1276;24355;-83
2023/03/31 04:03:49;;;;;;;12.50;4.70;;;;;;;;;;106979;1276;22525;-82
2023/03/31 04:06:23;;;;;;;11.80;4.00;;;;;;;;;;107007;1276;24247;-85
2023/03/31 04:09:02;;;;;;;10.70;4.50;;;;;;;;;;107086;1258;22490;-78
2023/03/31 04:11:35;;;;;;;12.60;4.10;;;;;;;;;;107250;1274;24233;-80
2023/03/31 04:14:28;;;;;;;10.90;4.70;;;;;;;;;;107195;1274;25346;-80
2023/03/31 04:17:03;;;;;;;12.20;4.50;;;;;;;;;;107215;1254;25375;-79
2023/03/31 04:19:43;;;;;;;13.80;4.80;;;;;;;;;;106962;1275;23902;-79
2023/03/31 04:22:20;;;;;;;11.50;5.00;;;;;;;;;;107119;1275;26541;-80
2023/03/31 04:25:17;;;;;;;14.90;5.30;;;;;;;;;;106943;1276;23460;-83
2023/03/31 04:27:59;;;;;;;15.10;7.10;;;;;;;;;;107065;1276;22743;-79
2023/03/31 04:30:32;;;;;;;14.30;5.40;;;;;;;;;;107091;1276;22572;-84
2023/03/31 04:33:10;;;;;;;;;;;;;;;;;;;;;
2023/03/31 04:35:54;;;;;;;12.70;5.60;;;;;;;;;;107106;1276;22451;-83
2023/03/31 04:39:04;;;;;;;17.90;9.10;;;;;;;;;;106891;1260;22639;-80
2023/03/31 04:42:04;;;;;;;;;;;;;;;;;;;;;
2023/03/31 04:44:51;;;;;;;30.00;17.00;;;;;;;;;;106948;1278;25445;-79
2023/03/31 04:47:48;;;;;;;24.40;13.60;;;;;;;;;;106920;1270;23536;-80
2023/03/31 04:50:27;;;;;;;24.30;14.70;;;;;;;;;;107082;1276;24255;-83
2023/03/31 04:53:06;;;;;;;23.00;13.90;;;;;;;;;;107001;1276;22989;-84
2023/03/31 04:55:41;;;;;;;25.20;12.90;;;;;;;;;;106916;1276;24264;-81
2023/03/31 04:58:34;;;;;;;24.40;13.30;;;;;;;;;;106944;1260;22513;-83
2023/03/31 05:01:07;;;;;;;19.50;9.20;;;;;;;;;;106920;1278;25318;-79
2023/03/31 05:03:46;;;;;;;18.00;7.80;;;;;;;;;;106806;1278;22494;-80
2023/03/31 05:06:17;;;;;;;17.80;7.60;;;;;;;;;;106891;1275;25336;-79
2023/03/31 05:09:10;;;;;;;18.20;7.50;;;;;;;;;;106989;1260;24223;-84
2023/03/31 05:12:00;;;;;;;22.30;9.10;;;;;;;;;;107058;1276;22993;-79
2023/03/31 05:17:38;;;;;;;22.60;12.30;;;;;;;;;;107393;1270;24243;-80
2023/03/31 05:20:18;;;;;;;25.50;12.60;;;;;;;;;;106906;1262;22531;-81
2023/03/31 05:23:24;;;;;;;19.40;11.50;;;;;;;;;;107210;1275;22531;-84
2023/03/31 05:27:00;;;;;;;19.30;10.50;;;;;;;;;;106772;1275;24224;-78
2023/03/31 05:29:35;;;;;;;16.20;7.90;;;;;;;;;;106758;1263;22528;-81
2023/03/31 05:32:35;;;;;;;12.20;5.00;;;;;;;;;;106610;1283;25597;-84
2023/03/31 05:35:36;;;;;;;;;;;;;;;;;;;;;
2023/03/31 05:38:22;;;;;;;11.90;5.70;;;;;;;;;;106436;1283;22535;-81
2023/03/31 05:41:15;;;;;;;;;;;;;;;;;;;;;
2023/03/31 05:45:09;;;;;;;10.70;4.60;;;;;;;;;;106480;1283;25332;-83
2023/03/31 05:47:30;;;;;;;11.40;5.20;;;;;;;;;;106561;1283;24342;-84
2023/03/31 05:50:22;;;;;;;14.40;5.70;;;;;;;;;;106806;1261;22523;-85
2023/03/31 05:53:02;;;;;;;13.20;5.70;;;;;;;;;;106817;1280;24272;-81
2023/03/31 05:55:34;;;;;;;11.60;5.50;;;;;;;;;;106608;1280;24228;-79
2023/03/31 05:58:14;;;;;;;12.10;5.50;;;;;;;;;;107228;1274;22520;-81
2023/03/31 06:01:22;;;;;;;12.50;6.40;;;;;;;;;;107164;1254;22476;-87
2023/03/31 06:03:54;;;;;;;10.50;5.00;;;;;;;;;;107182;1275;25335;-82
2023/03/31 06:06:21;;;;;;;14.30;5.10;;;;;;;;;;107178;1275;22639;-81
2023/03/31 06:08:48;;;;;;;11.90;5.30;;;;;;;;;;106931;1260;24195;-84
2023/03/31 06:11:20;;;;;;;13.00;5.50;;;;;;;;;;107536;1257;23811;-79
2023/03/31 06:13:58;;;;;;;13.00;5.50;;;;;;;;;;106854;1274;24221;-84
2023/03/31 06:16:53;;;;;;;;;;;;;;;;;;;;;
2023/03/31 06:20:30;;;;;;;13.40;5.60;;;;;;;;;;107164;1254;22620;-85
2023/03/31 06:22:43;;;;;;;19.80;9.30;;;;;;;;;;107105;1275;22527;-80
2023/03/31 06:25:20;;;;;;;14.70;6.90;;;;;;;;;;106951;1275;22533;-87
2023/03/31 06:28:07;;;;;;;13.10;7.00;;;;;;;;;;106986;1276;22661;-81
2023/03/31 06:31:20;;;;;;;11.40;5.80;;;;;;;;;;107156;1265;22527;-83
2023/03/31 06:34:15;;;;;;;;;;;;;;;;;;;;;
2023/03/31 06:37:05;;;;;;;16.20;7.40;;;;;;;;;;107189;1275;24189;-82
2023/03/31 06:39:34;;;;;;;14.90;7.40;;;;;;;;;;106958;1275;22547;-81
2023/03/31 06:42:25;;;;;;;;;;;;;;;;;;;;;
2023/03/31 06:45:17;;;;;;;14.70;7.40;;;;;;;;;;106975;1276;25357;-80
2023/03/31 06:48:29;;;;;;;11.00;6.20;;;;;;;;;;106998;1276;22531;-80
2023/03/31 06:51:05;;;;;;;14.00;6.20;;;;;;;;;;106915;1253;22734;-83
2023/03/31 06:53:32;;;;;;;11.80;5.10;;;;;;;;;;106924;1275;25413;-82
2023/03/31 06:56:07;;;;;;;12.70;6.00;;;;;;;;;;107052;1275;24289;-82
2023/03/31 06:58:46;;;;;;;11.80;5.30;;;;;;;;;;106995;1270;25347;-81
2023/03/31 07:01:37;;;;;;;;;;;;;;;;;;;;;
2023/03/31 07:04:10;;;;;;;11.80;5.90;;;;;;;;;;106994;1273;25466;-84
2023/03/31 07:06:42;;;;;;;13.10;5.90;;;;;;;;;;106942;1276;25278;-84
2023/03/31 07:09:22;;;;;;;;;;;;;;;;;;;;;
2023/03/31 07:12:19;;;;;;;12.10;6.20;;;;;;;;;;106993;1256;24203;-86
2023/03/31 07:15:47;;;;;;;9.60;5.10;;;;;;;;;;106887;1281;22544;-82
2023/03/31 07:18:16;;;;;;;13.20;6.90;;;;;;;;;;106733;1278;22526;-81
2023/03/31 07:20:46;;;;;;;10.90;5.60;;;;;;;;;;106519;1258;22569;-85
2023/03/31 07:23:17;;;;;;;13.00;5.80;;;;;;;;;;106711;1281;22652;-81
2023/03/31 07:25:54;;;;;;;11.80;5.20;;;;;;;;;;106620;1281;25281;-81
2023/03/31 07:28:24;;;;;;;12.20;6.10;;;;;;;;;;106503;1281;24382;-82
2023/03/31 07:30:57;;;;;;;13.70;6.00;;;;;;;;;;106552;1257;22532;-86
2023/03/31 07:33:25;;;;;;;14.50;6.90;;;;;;;;;;106546;1279;25524;-82
2023/03/31 07:36:22;;;;;;;16.30;6.90;;;;;;;;;;106622;1282;24344;-80
2023/03/31 07:38:49;;;;;;;17.00;7.20;;;;;;;;;;106511;1282;24247;-85
2023/03/31 07:41:28;;;;;;;14.80;7.10;;;;;;;;;;106487;1282;22539;-83
2023/03/31 07:44:20;;;;;;;14.60;6.70;;;;;;;;;;106573;1282;23011;-81
2023/03/31 07:46:49;;;;;;;15.60;6.20;;;;;;;;;;106557;1282;25339;-79
2023/03/31 07:49:19;;;;;;;12.40;6.10;;;;;;;;;;106510;1282;21945;-83
2023/03/31 07:51:48;;;;;;;10.80;5.70;;;;;;;;;;106630;1259;22639;-82
2023/03/31 07:54:28;;;;;;;12.20;5.60;;;;;;;;;;106932;1276;24080;-81
2023/03/31 07:57:04;;;;;;;12.70;6.30;;;;;;;;;;106921;1276;24365;-83
2023/03/31 07:59:37;;;;;;;13.20;5.90;;;;;;;;;;106919;1276;22546;-83
2023/03/31 08:02:06;;;;;;;14.20;6.90;;;;;;;;;;106950;1260;25329;-81
2023/03/31 08:04:35;;;;;;;17.50;6.70;;;;;;;;;;106956;1276;25352;-82
2023/03/31 08:07:08;;;;;;;18.50;7.10;;;;;;;;;;106991;1276;22545;-80
2023/03/31 08:09:48;;;;;;;13.90;6.10;;;;;;;;;;106963;1276;23410;-83
2023/03/31 08:12:17;;;;;;;14.40;6.10;;;;;;;;;;106948;1259;25479;-83
2023/03/31 08:14:52;;;;;;;13.70;5.80;;;;;;;;;;106920;1276;25362;-80
2023/03/31 08:17:22;;;;;;;13.60;6.20;;;;;;;;;;106969;1276;25482;-81
2023/03/31 08:19:50;;;;;;;11.10;6.00;;;;;;;;;;106901;1276;22536;-86
2023/03/31 08:22:22;;;;;;;12.60;6.40;;;;;;;;;;107039;1256;25366;-82
2023/03/31 08:25:54;;;;;;;12.10;5.50;;;;;;;;;;106944;1276;25329;-84
2023/03/31 08:28:21;;;;;;;13.20;5.30;;;;;;;;;;107256;1273;25338;-84
2023/03/31 08:30:53;;;;;;;13.10;5.20;;;;;;;;;;107216;1273;22570;-85
2023/03/31 08:33:28;;;;;;;14.60;5.50;;;;;;;;;;107191;1256;25278;-83
2023/03/31 08:36:05;;;;;;;11.20;4.90;;;;;;;;;;106985;1274;22737;-84
2023/03/31 08:38:32;;;;;;;12.00;4.70;;;;;;;;;;106940;1274;24410;-89
2023/03/31 08:41:00;;;;;;;10.80;4.70;;;;;;;;;;106998;1274;21772;-82
2023/03/31 08:43:33;;;;;;;13.90;5.30;;;;;;;;;;107253;1250;23000;-88
2023/03/31 08:46:14;;;;;;;14.70;5.80;;;;;;;;;;107253;1273;22646;-83
2023/03/31 08:48:47;;;;;;;15.40;6.60;;;;;;;;;;107158;1273;26478;-80
2023/03/31 08:51:20;;;;;;;15.30;5.40;;;;;;;;;;107238;1273;22520;-83
2023/03/31 08:53:55;;;;;;;12.60;5.30;;;;;;;;;;107159;1274;22524;-86
2023/03/31 08:56:26;;;;;;;13.70;5.20;;;;;;;;;;107074;1274;22519;-82
2023/03/31 08:59:19;;;;;;;14.70;5.60;;;;;;;;;;106997;1274;25220;-82
2023/03/31 09:02:06;;;;;;;15.40;6.30;;;;;;;;;;107096;1274;23703;-82
2023/03/31 09:04:50;;;;;;;14.50;6.30;;;;;;;;;;107291;1253;22536;-84
2023/03/31 09:07:30;;;;;;;13.10;6.70;;;;;;;;;;107172;1273;22631;-84
2023/03/31 09:10:29;;;;;;;;;;;;;;;;;;;;;
2023/03/31 09:13:22;;;;;;;14.80;7.10;;;;;;;;;;107246;1251;22619;-81
2023/03/31 09:15:49;;;;;;;14.40;6.60;;;;;;;;;;107309;1274;22540;-87
2023/03/31 09:18:34;;;;;;;14.10;6.50;;;;;;;;;;107107;1274;22533;-81
2023/03/31 09:21:29;;;;;;;12.90;6.70;;;;;;;;;;107105;1274;22520;-82
2023/03/31 09:23:56;;;;;;;13.60;5.40;;;;;;;;;;107025;1256;24246;-81
2023/03/31 09:26:36;;;;;;;;;;;;;;;;;;;;;
2023/03/31 09:29:19;;;;;;;;;;;;;;;;;;;;;
2023/03/31 09:31:49;;;;;;;13.40;5.20;;;;;;;;;;107194;1273;25264;-87
2023/03/31 09:34:32;;;;;;;;;;;;;;;;;;;;;
2023/03/31 09:37:00;;;;;;;11.80;5.20;;;;;;;;;;107045;1274;22931;-83
2023/03/31 09:39:34;;;;;;;15.00;5.20;;;;;;;;;;107062;1274;22601;-84
2023/03/31 09:42:01;;;;;;;15.00;6.00;;;;;;;;;;107249;1272;24364;-89
2023/03/31 09:44:41;;;;;;;14.90;5.70;;;;;;;;;;107264;1273;24099;-89
2023/03/31 09:47:34;;;;;;;15.60;5.80;;;;;;;;;;107225;1273;25633;-83
2023/03/31 09:50:06;;;;;;;14.90;5.30;;;;;;;;;;107250;1273;25362;-87
2023/03/31 09:52:52;;;;;;;13.30;4.70;;;;;;;;;;107262;1273;24189;-83
2023/03/31 09:55:41;;;;;;;9.80;3.90;;;;;;;;;;107051;1258;23902;-86
2023/03/31 09:58:25;;;;;;;;;;;;;;;;;;;;;
2023/03/31 10:01:26;;;;;;;9.00;3.70;;;;;;;;;;107227;1274;22537;-86
2023/03/31 10:03:59;;;;;;;9.20;3.20;;;;;;;;;;107035;1251;25240;-84
2023/03/31 10:06:34;;;;;;;12.90;3.80;;;;;;;;;;107033;1273;25343;-84
2023/03/31 10:09:02;;;;;;;10.10;3.30;;;;;;;;;;107286;1263;24240;-86
2023/03/31 10:12:23;;;;;;;10.60;3.50;;;;;;;;;;107016;1273;25213;-83
2023/03/31 10:14:45;;;;;;;9.50;3.30;;;;;;;;;;107254;1256;22520;-84
2023/03/31 10:17:22;;;;;;;10.50;3.80;;;;;;;;;;106964;1274;22520;-84
2023/03/31 10:19:53;;;;;;;12.60;4.10;;;;;;;;;;107225;1274;22638;-84
2023/03/31 10:22:23;;;;;;;11.50;3.90;;;;;;;;;;107058;1274;22523;-83
2023/03/31 10:25:06;;;;;;;14.10;3.60;;;;;;;;;;107073;1259;24231;-87
2023/03/31 10:27:34;;;;;;;16.10;4.40;;;;;;;;;;107418;1273;23538;-81
2023/03/31 10:30:23;;;;;;;14.20;3.90;;;;;;;;;;107303;1273;22539;-81
2023/03/31 10:32:50;;;;;;;13.80;4.20;;;;;;;;;;107212;1273;22540;-84
2023/03/31 10:35:32;;;;;;;11.30;3.50;;;;;;;;;;107139;1274;22531;-80
2023/03/31 10:38:01;;;;;;;11.80;3.80;;;;;;;;;;106958;1274;25450;-82
2023/03/31 10:40:31;;;;;;;10.50;3.50;;;;;;;;;;107037;1274;22632;-83
2023/03/31 10:43:28;;;;;;;12.30;4.00;;;;;;;;;;107158;1274;22608;-84
2023/03/31 10:46:10;;;;;;;14.90;4.40;;;;;;;;;;107287;1263;22520;-89
2023/03/31 10:48:45;;;;;;;14.10;4.80;;;;;;;;;;107232;1273;25278;-84
2023/03/31 10:51:15;;;;;;;14.10;4.70;;;;;;;;;;107049;1273;25459;-86
2023/03/31 10:53:53;;;;;;;10.60;4.40;;;;;;;;;;107069;1273;22506;-83
2023/03/31 10:56:37;;;;;;;12.10;4.60;;;;;;;;;;106870;1257;22539;-80
2023/03/31 10:59:15;;;;;;;9.90;4.60;;;;;;;;;;107027;1272;22544;-85
2023/03/31 11:02:11;;;;;;;;;;;;;;;;;;;;;
2023/03/31 11:04:44;;;;;;;9.30;3.90;;;;;;;;;;107027;1274;22530;-83
2023/03/31 11:07:53;;;;;;;;;;;;;;;;;;;;;
2023/03/31 11:10:57;;;;;;;8.10;4.00;;;;;;;;;;107254;1273;22528;-88
2023/03/31 11:14:19;;;;;;;11.30;3.50;;;;;;;;;;107191;1273;24192;-84
2023/03/31 11:17:28;;;;;;;13.40;4.20;;;;;;;;;;107363;1256;25329;-80
2023/03/31 11:20:33;;;;;;;9.90;4.70;;;;;;;;;;107230;1274;22985;-84
2023/03/31 11:23:42;;;;;;;11.10;5.10;;;;;;;;;;107053;1274;24179;-85
2023/03/31 11:26:27;;;;;;;11.60;4.50;;;;;;;;;;107108;1256;22525;-83
2023/03/31 11:29:15;;;;;;;10.10;4.40;;;;;;;;;;107275;1267;25347;-80
2023/03/31 11:32:08;;;;;;;10.80;4.40;;;;;;;;;;107509;1272;25220;-80
2023/03/31 11:35:14;;;;;;;;;;;;;;;;;;;;;
2023/03/31 11:38:05;;;;;;;9.30;3.80;;;;;;;;;;107271;1253;25392;-84
2023/03/31 11:40:44;;;;;;;8.90;3.80;;;;;;;;;;107062;1273;22522;-85
2023/03/31 11:43:26;;;;;;;8.70;3.40;;;;;;;;;;107205;1261;24285;-83
2023/03/31 11:46:04;;;;;;;9.40;4.10;;;;;;;;;;107167;1272;24287;-80
2023/03/31 11:48:48;;;;;;;9.70;3.60;;;;;;;;;;107415;1268;22517;-82
2023/03/31 11:52:16;;;;;;;11.50;4.10;;;;;;;;;;107356;1270;23255;-84
2023/03/31 11:54:22;;;;;;;10.60;3.80;;;;;;;;;;107395;1269;24170;-84
2023/03/31 11:56:56;;;;;;;7.80;3.40;;;;;;;;;;107377;1257;25356;-80
2023/03/31 11:59:33;;;;;;;9.00;3.90;;;;;;;;;;107273;1270;22532;-85
2023/03/31 12:02:21;;;;;;;11.40;3.80;;;;;;;;;;107206;1274;25262;-85
2023/03/31 12:04:52;;;;;;;8.70;3.10;;;;;;;;;;107180;1269;22531;-80
2023/03/31 12:07:28;;;;;;;11.50;4.50;;;;;;;;;;107379;1256;22534;-81
2023/03/31 12:10:17;;;;;;;10.30;4.10;;;;;;;;;;107216;1267;22970;-86
2023/03/31 12:13:14;;;;;;;8.80;3.70;;;;;;;;;;107471;1249;22549;-84
2023/03/31 12:15:50;;;;;;;11.60;3.30;;;;;;;;;;107581;1260;25442;-81
2023/03/31 12:18:20;;;;;;;10.00;3.70;;;;;;;;;;107275;1264;22545;-84
2023/03/31 12:20:53;;;;;;;12.50;3.80;;;;;;;;;;107363;1266;23119;-84
2023/03/31 12:23:25;;;;;;;8.80;3.10;;;;;;;;;;107292;1266;22524;-82
2023/03/31 12:26:15;;;;;;;9.10;3.00;;;;;;;;;;107346;1266;22523;-82
2023/03/31 12:28:45;;;;;;;9.50;2.90;;;;;;;;;;107084;1256;24185;-81
2023/03/31 12:31:27;;;;;;;8.80;2.90;;;;;;;;;;107135;1270;24250;-83
2023/03/31 12:34:20;;;;;;;7.60;2.00;;;;;;;;;;107249;1269;23133;-83
2023/03/31 12:36:53;;;;;;;6.40;1.80;;;;;;;;;;107428;1254;22522;-81
2023/03/31 12:39:27;;;;;;;10.80;2.30;;;;;;;;;;106924;1272;22522;-81
2023/03/31 12:42:25;;;;;;;12.90;4.10;;;;;;;;;;107053;1272;23892;-80
2023/03/31 12:45:17;;;;;;;14.60;4.10;;;;;;;;;;107077;1266;25220;-83
2023/03/31 12:47:47;;;;;;;13.70;4.40;;;;;;;;;;107028;1256;23115;-82
2023/03/31 12:50:58;;;;;;;15.30;5.40;;;;;;;;;;107349;1270;24192;-82
2023/03/31 12:53:33;;;;;;;13.30;4.40;;;;;;;;;;107387;1271;22451;-83
2023/03/31 12:56:09;;;;;;;9.10;2.80;;;;;;;;;;107270;1270;22730;-89
2023/03/31 12:58:40;;;;;;;8.80;2.80;;;;;;;;;;107265;1256;22673;-82
2023/03/31 13:01:15;;;;;;;10.70;3.60;;;;;;;;;;107138;1274;22624;-85
2023/03/31 13:04:10;;;;;;;9.10;2.70;;;;;;;;;;107128;1274;25312;-82
2023/03/31 13:06:36;;;;;;;12.50;3.10;;;;;;;;;;107141;1275;24214;-83
2023/03/31 13:09:10;;;;;;;12.70;3.60;;;;;;;;;;107256;1257;22524;-83
2023/03/31 13:11:41;;;;;;;10.70;3.30;;;;;;;;;;107269;1273;22476;-81
2023/03/31 13:14:53;;;;;;;;;;;;;;;;;;;;;
2023/03/31 13:17:39;;;;;;;9.60;2.70;;;;;;;;;;107281;1273;25223;-84
2023/03/31 13:20:23;;;;;;;14.90;3.00;;;;;;;;;;107193;1257;22645;-84
2023/03/31 13:23:36;;;;;;;7.40;2.10;;;;;;;;;;107099;1273;23265;-85
2023/03/31 13:26:36;;;;;;;9.70;2.50;;;;;;;;;;107265;1273;22510;-82
2023/03/31 13:29:21;;;;;;;10.30;2.30;;;;;;;;;;107280;1253;22566;-81
2023/03/31 13:32:16;;;;;;;10.80;3.00;;;;;;;;;;107284;1273;22520;-87
2023/03/31 13:35:13;;;;;;;;;;;;;;;;;;;;;
2023/03/31 13:38:14;;;;;;;8.10;3.00;;;;;;;;;;107301;1273;22521;-81
2023/03/31 13:41:11;;;;;;;;;;;;;;;;;;;;;
2023/03/31 13:44:02;;;;;;;7.30;2.20;;;;;;;;;;107234;1273;22520;-81
2023/03/31 13:46:44;;;;;;;7.70;2.30;;;;;;;;;;107136;1251;22516;-88
2023/03/31 13:49:39;;;;;;;8.70;2.80;;;;;;;;;;107262;1254;22545;-80
2023/03/31 13:52:27;;;;;;;9.40;2.80;;;;;;;;;;107218;1273;25325;-81
2023/03/31 13:54:54;;;;;;;13.30;3.90;;;;;;;;;;107024;1273;24314;-84
2023/03/31 13:57:29;;;;;;;12.20;4.00;;;;;;;;;;107180;1273;22520;-83
2023/03/31 14:00:41;;;;;;;33.90;16.20;;;;;;;;;;107082;1259;22521;-80
2023/03/31 14:03:18;;;;;;;11.80;3.70;;;;;;;;;;107047;1273;24219;-85
2023/03/31 14:06:12;;;;;;;8.90;2.70;;;;;;;;;;107083;1273;22649;-81
2023/03/31 14:08:46;;;;;;;12.60;4.10;;;;;;;;;;106910;1273;24249;-84
2023/03/31 14:11:36;;;;;;;11.30;3.60;;;;;;;;;;107260;1257;26477;-85
2023/03/31 14:14:10;;;;;;;10.10;3.00;;;;;;;;;;107275;1273;22568;-89
2023/03/31 14:17:14;;;;;;;;;;;;;;;;;;;;;
2023/03/31 14:20:34;;;;;;;9.00;2.50;;;;;;;;;;107104;1251;25509;-86
2023/03/31 14:23:01;;;;;;;7.90;2.50;;;;;;;;;;107183;1273;22517;-82
2023/03/31 14:25:50;;;;;;;6.30;2.00;;;;;;;;;;107220;1273;24174;-84
2023/03/31 14:28:28;;;;;;;9.70;3.10;;;;;;;;;;107268;1273;24206;-82
2023/03/31 14:31:03;;;;;;;11.00;3.80;;;;;;;;;;107319;1273;22516;-84
2023/03/31 14:34:06;;;;;;;;;;;;;;;;;;;;;
2023/03/31 14:36:56;;;;;;;11.10;3.70;;;;;;;;;;106987;1271;22479;-80
2023/03/31 14:39:30;;;;;;;10.00;4.10;;;;;;;;;;107221;1273;22520;-85
2023/03/31 14:42:25;;;;;;;9.80;3.10;;;;;;;;;;107147;1256;22516;-87
2023/03/31 14:45:13;;;;;;;8.50;3.30;;;;;;;;;;107271;1273;23677;-81
2023/03/31 14:47:56;;;;;;;10.30;3.90;;;;;;;;;;107176;1273;23538;-84
2023/03/31 14:50:34;;;;;;;11.30;4.20;;;;;;;;;;107198;1255;22517;-87
2023/03/31 14:53:13;;;;;;;12.40;3.90;;;;;;;;;;107316;1273;22520;-82
2023/03/31 14:55:46;;;;;;;9.90;3.10;;;;;;;;;;107217;1273;22538;-84
2023/03/31 14:58:44;;;;;;;7.20;2.40;;;;;;;;;;107222;1273;22483;-82
2023/03/31 15:02:00;;;;;;;11.80;5.30;;;;;;;;;;107165;1257;22611;-85
2023/03/31 15:04:19;;;;;;;9.90;3.40;;;;;;;;;;107170;1273;22488;-83
2023/03/31 15:06:58;;;;;;;8.80;2.90;;;;;;;;;;107223;1273;22510;-86
2023/03/31 15:09:32;;;;;;;8.30;3.00;;;;;;;;;;107158;1273;22514;-82
2023/03/31 15:12:09;;;;;;;7.00;2.30;;;;;;;;;;107293;1253;24313;-84
2023/03/31 15:14:49;;;;;;;6.50;1.90;;;;;;;;;;107200;1273;25278;-81
2023/03/31 15:17:37;;;;;;;11.70;3.30;;;;;;;;;;107069;1273;22520;-87
2023/03/31 15:20:30;;;;;;;8.10;2.60;;;;;;;;;;107234;1273;23220;-80
2023/03/31 15:23:23;;;;;;;8.00;2.70;;;;;;;;;;107277;1253;22528;-81
2023/03/31 15:25:45;;;;;;;13.10;4.60;;;;;;;;;;107179;1273;22520;-81
2023/03/31 15:28:25;;;;;;;15.30;5.00;;;;;;;;;;107097;1274;22536;-84
2023/03/31 15:31:22;;;;;;;;;;;;;;;;;;;;;
2023/03/31 15:34:35;;;;;;;11.80;3.30;;;;;;;;;;107219;1273;24212;-80
2023/03/31 15:37:32;;;;;;;13.50;3.80;;;;;;;;;;107302;1273;24243;-86
2023/03/31 15:40:09;;;;;;;10.80;3.60;;;;;;;;;;105111;1273;2842159;-84
2023/03/31 15:43:00;;;;;;;;;;;;;;;;;;;;;
2023/03/31 15:45:51;;;;;;;12.40;4.30;;;;;;;;;;107255;1273;22528;-85
2023/03/31 15:48:36;;;;;;;12.80;4.70;;;;;;;;;;107085;1251;24178;-83
2023/03/31 15:52:28;;;;;;;10.70;3.30;;;;;;;;;;107200;1251;25223;-86
2023/03/31 15:54:56;;;;;;;9.20;3.90;;;;;;;;;;107231;1273;22653;-86
2023/03/31 15:57:41;;;;;;;13.90;4.60;;;;;;;;;;107268;1273;25223;-80
2023/03/31 16:00:55;;;;;;;18.10;7.20;;;;;;;;;;107227;1273;24240;-85
2023/03/31 16:03:49;;;;;;;19.10;7.40;;;;;;;;;;107276;1256;24174;-89
2023/03/31 16:06:49;;;;;;;24.00;9.60;;;;;;;;;;107213;1273;22510;-82
2023/03/31 16:09:30;;;;;;;23.70;8.30;;;;;;;;;;106511;1282;25438;-82
2023/03/31 16:12:03;;;;;;;25.70;8.90;;;;;;;;;;106438;1259;22536;-82
2023/03/31 16:14:50;;;;;;;22.10;8.80;;;;;;;;;;106526;1281;22537;-83
2023/03/31 16:17:21;;;;;;;15.70;5.70;;;;;;;;;;106530;1282;25332;-81
2023/03/31 16:20:24;;;;;;;21.80;7.70;;;;;;;;;;106457;1281;22572;-83